createdAt,value
2023-02-19T00:01:54.715Z,101135.66
2023-02-19T00:03:57.468Z,101125.66
2023-02-19T00:06:01.610Z,101120.78
2023-02-19T00:08:03.250Z,101121.59
2023-02-19T00:10:05.032Z,101101.84
2023-02-19T00:12:06.766Z,101098.84
2023-02-19T00:14:14.441Z,101098.69
2023-02-19T00:16:19.209Z,101103.50
2023-02-19T00:18:20.770Z,101097.50
2023-02-19T00:20:22.348Z,101106.78
2023-02-19T00:22:23.950Z,101110.03
2023-02-19T00:24:25.782Z,101112.69
2023-02-19T00:26:28.272Z,101114.81
2023-02-19T00:28:29.937Z,101113.41
2023-02-19T00:30:32.983Z,101116.69
2023-02-19T00:32:34.585Z,101118.94
2023-02-19T00:34:36.285Z,101125.69
2023-02-19T00:36:39.773Z,101117.31
2023-02-19T00:38:43.073Z,101121.16
2023-02-19T00:40:44.596Z,101116.00
2023-02-19T00:42:46.160Z,101117.56
2023-02-19T00:44:47.729Z,101127.59
2023-02-19T00:46:50.621Z,101123.53
2023-02-19T00:48:52.634Z,101120.81
2023-02-19T00:50:54.163Z,101114.31
2023-02-19T00:52:55.690Z,101109.69
2023-02-19T00:54:57.277Z,101119.72
2023-02-19T00:56:58.715Z,101109.75
2023-02-19T00:59:00.369Z,101113.81
2023-02-19T01:01:02.289Z,101120.56
2023-02-19T01:03:05.261Z,101112.69
2023-02-19T01:05:07.147Z,101106.16
2023-02-19T01:07:10.134Z,101117.53
2023-02-19T01:09:11.820Z,101111.03
2023-02-19T01:11:14.773Z,101114.06
2023-02-19T01:13:17.004Z,101115.75
2023-02-19T01:15:18.752Z,101122.25
2023-02-19T01:17:20.392Z,101131.16
2023-02-19T01:19:23.357Z,101130.63
2023-02-19T01:21:26.644Z,101136.28
2023-02-19T01:23:28.186Z,101136.03
2023-02-19T01:25:29.881Z,101133.06
2023-02-19T01:27:31.451Z,101118.97
2023-02-19T01:29:33.308Z,101121.16
2023-02-19T01:31:35.149Z,101107.13
2023-02-19T01:33:36.712Z,101108.19
2023-02-19T01:35:40.125Z,101100.53
2023-02-19T01:37:41.665Z,101106.50
2023-02-19T01:39:43.337Z,101106.78
2023-02-19T01:41:44.874Z,101107.34
2023-02-19T01:43:58.628Z,101111.44
2023-02-19T01:46:00.632Z,101106.06
2023-02-19T01:48:07.638Z,101106.88
2023-02-19T01:50:09.342Z,101103.88
2023-02-19T01:52:18.646Z,101103.84
2023-02-19T01:54:23.390Z,101097.63
2023-02-19T01:56:27.024Z,101094.91
2023-02-19T01:58:31.638Z,101094.91
2023-02-19T02:00:33.967Z,101085.22
2023-02-19T02:02:36.185Z,101089.00
2023-02-19T02:04:38.022Z,101081.41
2023-02-19T02:06:47.939Z,101079.25
2023-02-19T02:08:54.896Z,101080.66
2023-02-19T02:10:57.490Z,101080.34
2023-02-19T02:12:59.052Z,101077.09
2023-02-19T02:15:00.790Z,101079.00
2023-02-19T02:17:11.289Z,101081.19
2023-02-19T02:19:30.478Z,101064.97
2023-02-19T02:21:53.904Z,101069.84
2023-02-19T02:24:11.869Z,101066.63
2023-02-19T02:26:28.417Z,101066.97
2023-02-19T02:28:50.009Z,101068.59
2023-02-19T02:30:56.343Z,101062.22
2023-02-19T02:33:04.552Z,101058.44
2023-02-19T02:35:10.144Z,101060.00
2023-02-19T02:37:13.184Z,101063.81
2023-02-19T02:39:18.741Z,101058.44
2023-02-19T02:41:21.249Z,101058.66
2023-02-19T02:43:22.943Z,101055.38
2023-02-19T02:45:28.235Z,101051.09
2023-02-19T02:47:33.332Z,101051.38
2023-02-19T02:49:35.559Z,101047.84
2023-02-19T02:51:41.314Z,101045.69
2023-02-19T02:53:48.966Z,101043.53
2023-02-19T02:55:52.656Z,101048.56
2023-02-19T02:57:54.637Z,101050.25
2023-02-19T02:59:56.751Z,101045.38
2023-02-19T03:02:02.674Z,101054.28
2023-02-19T03:04:11.000Z,101056.78
2023-02-19T03:06:17.183Z,101048.94
2023-02-19T03:08:23.892Z,101046.03
2023-02-19T03:10:31.047Z,101055.50
2023-02-19T03:12:35.714Z,101056.03
2023-02-19T03:14:41.841Z,101052.50
2023-02-19T03:16:46.279Z,101044.41
2023-02-19T03:18:51.898Z,101043.16
2023-02-19T03:20:58.008Z,101042.56
2023-02-19T03:23:01.073Z,101050.44
2023-02-19T03:25:07.228Z,101054.22
2023-02-19T03:27:12.798Z,101054.47
2023-02-19T03:29:14.860Z,101057.34
2023-02-19T03:31:21.225Z,101050.38
2023-02-19T03:33:27.012Z,101048.16
2023-02-19T03:35:33.154Z,101044.91
2023-02-19T03:37:39.674Z,101039.25
2023-02-19T03:39:41.483Z,101035.72
2023-02-19T03:41:50.148Z,101042.81
2023-02-19T03:43:57.457Z,101047.19
2023-02-19T03:46:09.534Z,101041.47
2023-02-19T03:48:22.026Z,101040.97
2023-02-19T03:50:28.952Z,101039.94
2023-02-19T03:52:39.835Z,101039.13
2023-02-19T03:54:50.432Z,101043.69
2023-02-19T03:56:58.545Z,101044.81
2023-02-19T03:59:06.730Z,101037.25
2023-02-19T04:01:19.686Z,101043.72
2023-02-19T04:03:27.678Z,101042.94
2023-02-19T04:05:31.833Z,101053.22
2023-02-19T04:07:37.851Z,101050.75
2023-02-19T04:09:46.173Z,101051.56
2023-02-19T04:11:49.823Z,101055.63
2023-02-19T04:13:57.640Z,101057.22
2023-02-19T04:16:06.739Z,101051.31
2023-02-19T04:18:15.025Z,101055.34
2023-02-19T04:20:19.812Z,101051.84
2023-02-19T04:22:22.422Z,101050.50
2023-02-19T04:24:29.961Z,101055.38
2023-02-19T04:26:34.246Z,101063.78
2023-02-19T04:28:36.112Z,101062.41
2023-02-19T04:30:37.782Z,101057.00
2023-02-19T04:32:39.682Z,101059.44
2023-02-19T04:34:41.287Z,101065.44
2023-02-19T04:36:42.863Z,101061.63
2023-02-19T04:38:44.452Z,101065.97
2023-02-19T04:40:46.148Z,101068.41
2023-02-19T04:42:49.027Z,101071.38
2023-02-19T04:44:50.538Z,101070.03
2023-02-19T04:46:52.163Z,101076.50
2023-02-19T04:48:53.772Z,101073.28
2023-02-19T04:50:55.752Z,101081.13
2023-02-19T04:52:57.542Z,101080.84
2023-02-19T04:54:59.128Z,101076.53
2023-02-19T04:57:00.719Z,101078.97
2023-02-19T04:59:04.024Z,101073.56
2023-02-19T05:01:05.972Z,101071.69
2023-02-19T05:03:07.720Z,101074.09
2023-02-19T05:05:09.356Z,101083.56
2023-02-19T05:07:10.911Z,101072.75
2023-02-19T05:09:12.590Z,101070.06
2023-02-19T05:11:14.383Z,101081.94
2023-02-19T05:13:16.038Z,101083.81
2023-02-19T05:15:19.057Z,101084.63
2023-02-19T05:17:22.671Z,101083.28
2023-02-19T05:19:24.211Z,101084.63
2023-02-19T05:21:25.796Z,101083.00
2023-02-19T05:23:28.080Z,101088.41
2023-02-19T05:25:29.657Z,101088.69
2023-02-19T05:27:31.692Z,101095.97
2023-02-19T05:29:33.334Z,101087.59
2023-02-19T05:31:36.442Z,101082.47
2023-02-19T05:33:38.286Z,101096.50
2023-02-19T05:35:44.554Z,101100.81
2023-02-19T05:37:46.118Z,101091.34
2023-02-19T05:39:48.566Z,101093.78
2023-02-19T05:41:50.168Z,101091.63
2023-02-19T05:43:52.434Z,101097.84
2023-02-19T05:45:58.094Z,101093.53
2023-02-19T05:48:01.599Z,101093.25
2023-02-19T05:50:03.180Z,101097.03
2023-02-19T05:52:05.289Z,101089.19
2023-02-19T05:54:06.879Z,101095.13
2023-02-19T05:56:24.340Z,101097.81
2023-02-19T05:58:26.038Z,101103.50
2023-02-19T06:00:27.920Z,101104.06
2023-02-19T06:02:29.482Z,101108.06
2023-02-19T06:04:32.424Z,101112.13
2023-02-19T06:06:34.076Z,101115.91
2023-02-19T06:08:35.629Z,101113.22
2023-02-19T06:10:38.312Z,101117.25
2023-02-19T06:12:40.001Z,101113.50
2023-02-19T06:14:41.762Z,101121.84
2023-02-19T06:16:43.447Z,101124.28
2023-02-19T06:18:45.323Z,101125.13
2023-02-19T06:20:48.321Z,101128.59
2023-02-19T06:22:49.909Z,101133.19
2023-02-19T06:24:51.527Z,101132.66
2023-02-19T06:26:53.134Z,101130.25
2023-02-19T06:28:54.745Z,101139.69
2023-02-19T06:30:58.663Z,101145.34
2023-02-19T06:33:00.280Z,101140.78
2023-02-19T06:35:02.016Z,101155.38
2023-02-19T06:37:05.427Z,101156.19
2023-02-19T06:39:07.296Z,101160.50
2023-02-19T06:41:10.293Z,101159.16
2023-02-19T06:43:13.397Z,101160.22
2023-02-19T06:45:14.949Z,101162.41
2023-02-19T06:47:16.549Z,101165.91
2023-02-19T06:49:18.239Z,101164.28
2023-02-19T06:51:20.086Z,101171.84
2023-02-19T06:53:23.732Z,101178.59
2023-02-19T06:55:25.371Z,101183.75
2023-02-19T06:57:26.933Z,101188.31
2023-02-19T06:59:30.330Z,101192.66
2023-02-19T07:01:33.919Z,101192.13
2023-02-19T07:03:35.481Z,101192.66
2023-02-19T07:05:37.126Z,101194.56
2023-02-19T07:07:38.840Z,101200.50
2023-02-19T07:09:41.830Z,101202.94
2023-02-19T07:11:43.438Z,101205.63
2023-02-19T07:13:45.440Z,101201.03
2023-02-19T07:15:46.978Z,101210.75
2023-02-19T07:17:48.566Z,101206.44
2023-02-19T07:19:50.148Z,101216.44
2023-02-19T07:21:51.702Z,101210.22
2023-02-19T07:23:53.894Z,101208.63
2023-02-19T07:25:57.163Z,101207.25
2023-02-19T07:27:58.739Z,101210.25
2023-02-19T07:30:00.446Z,101213.75
2023-02-19T07:32:02.246Z,101205.34
2023-02-19T07:34:03.812Z,101207.25
2023-02-19T07:36:07.620Z,101204.00
2023-02-19T07:38:09.200Z,101200.50
2023-02-19T07:40:10.927Z,101203.19
2023-02-19T07:42:13.878Z,101204.28
2023-02-19T07:44:27.810Z,101202.41
2023-02-19T07:46:29.400Z,101207.53
2023-02-19T07:48:31.133Z,101207.25
2023-02-19T07:50:32.711Z,101215.63
2023-02-19T07:52:34.756Z,101220.22
2023-02-19T07:54:36.337Z,101218.63
2023-02-19T07:56:37.922Z,101221.59
2023-02-19T07:58:41.580Z,101227.25
2023-02-19T08:00:43.207Z,101238.09
2023-02-19T08:02:44.871Z,101239.16
2023-02-19T08:04:47.554Z,101239.69
2023-02-19T08:06:49.140Z,101241.59
2023-02-19T08:08:50.789Z,101239.16
2023-02-19T08:10:52.368Z,101243.50
2023-02-19T08:12:57.193Z,101246.72
2023-02-19T08:15:00.204Z,101253.75
2023-02-19T08:17:01.803Z,101244.81
2023-02-19T08:19:06.214Z,101245.06
2023-02-19T08:21:07.927Z,101251.03
2023-02-19T08:23:10.535Z,101248.88
2023-02-19T08:25:12.333Z,101255.09
2023-02-19T08:27:13.972Z,101246.97
2023-02-19T08:29:15.555Z,101240.75
2023-02-19T08:31:18.619Z,101241.28
2023-02-19T08:33:21.493Z,101240.19
2023-02-19T08:35:30.317Z,101250.19
2023-02-19T08:37:31.937Z,101249.69
2023-02-19T08:39:33.574Z,101266.16
2023-02-19T08:41:35.122Z,101267.25
2023-02-19T08:43:36.767Z,101271.53
2023-02-19T08:45:39.834Z,101273.41
2023-02-19T08:47:42.925Z,101268.84
2023-02-19T08:49:44.736Z,101269.91
2023-02-19T08:51:46.549Z,101275.84
2023-02-19T08:53:48.233Z,101284.75
2023-02-19T08:55:49.832Z,101291.00
2023-02-19T08:57:54.504Z,101291.78
2023-02-19T08:59:56.262Z,101286.38
2023-02-19T09:01:58.586Z,101287.44
2023-02-19T09:04:01.654Z,101300.16
2023-02-19T09:06:03.533Z,101293.69
2023-02-19T09:08:05.192Z,101297.16
2023-02-19T09:10:10.830Z,101297.97
2023-02-19T09:12:13.333Z,101298.78
2023-02-19T09:14:14.924Z,101305.84
2023-02-19T09:16:16.576Z,101315.28
2023-02-19T09:18:18.092Z,101311.47
2023-02-19T09:20:21.044Z,101318.50
2023-02-19T09:22:22.741Z,101321.25
2023-02-19T09:24:24.960Z,101316.38
2023-02-19T09:26:27.002Z,101326.91
2023-02-19T09:28:29.000Z,101325.00
2023-02-19T09:30:30.619Z,101326.13
2023-02-19T09:32:32.844Z,101329.09
2023-02-19T09:34:34.475Z,101325.00
2023-02-19T09:36:40.325Z,101328.53
2023-02-19T09:38:42.581Z,101333.66
2023-02-19T09:40:44.224Z,101331.53
2023-02-19T09:42:45.814Z,101335.88
2023-02-19T09:44:50.245Z,101331.00
2023-02-19T09:46:54.273Z,101319.88
2023-02-19T09:49:02.260Z,101339.09
2023-02-19T09:51:07.684Z,101332.03
2023-02-19T09:53:17.903Z,101334.50
2023-02-19T09:55:33.373Z,101339.91
2023-02-19T09:57:36.256Z,101348.81
2023-02-19T09:59:42.023Z,101346.66
2023-02-19T10:01:44.656Z,101343.66
2023-02-19T10:03:48.402Z,101344.50
2023-02-19T10:05:50.090Z,101332.84
2023-02-19T10:07:54.749Z,101334.16
2023-02-19T10:10:01.852Z,101339.00
2023-02-19T10:12:11.638Z,101329.28
2023-02-19T10:14:17.185Z,101332.22
2023-02-19T10:16:23.973Z,101333.31
2023-02-19T10:18:28.091Z,101341.19
2023-02-19T10:20:29.929Z,101337.94
2023-02-19T10:22:33.858Z,101337.66
2023-02-19T10:24:38.423Z,101340.91
2023-02-19T10:26:41.543Z,101345.25
2023-02-19T10:28:43.153Z,101342.00
2023-02-19T10:30:48.232Z,101343.88
2023-02-19T10:33:09.966Z,101343.63
2023-02-19T10:35:13.740Z,101344.69
2023-02-19T10:37:18.516Z,101341.41
2023-02-19T10:39:40.813Z,101337.59
2023-02-19T10:41:44.388Z,101345.41
2023-02-19T10:43:55.197Z,101346.72
2023-02-19T10:45:58.525Z,101347.53
2023-02-19T10:48:02.648Z,101347.34
2023-02-19T10:50:04.916Z,101348.38
2023-02-19T10:52:14.206Z,101347.78
2023-02-19T10:54:18.750Z,101353.38
2023-02-19T10:56:24.584Z,101354.06
2023-02-19T10:58:27.478Z,101349.44
2023-02-19T11:00:30.856Z,101351.63
2023-02-19T11:02:33.890Z,101354.28
2023-02-19T11:04:35.696Z,101363.91
2023-02-19T11:06:37.455Z,101352.03
2023-02-19T11:08:51.807Z,101370.44
2023-02-19T11:10:55.951Z,101383.59
2023-02-19T11:13:00.105Z,101386.25
2023-02-19T11:15:19.794Z,101382.09
2023-02-19T11:17:24.134Z,101394.94
2023-02-19T11:19:30.118Z,101405.66
2023-02-19T11:21:31.977Z,101396.91
2023-02-19T11:23:37.280Z,101406.53
2023-02-19T11:25:46.092Z,101400.97
2023-02-19T11:27:55.695Z,101414.63
2023-02-19T11:30:33.866Z,101403.28
2023-02-19T11:32:37.029Z,101406.19
2023-02-19T11:34:38.830Z,101404.34
2023-02-19T11:36:41.836Z,101408.22
2023-02-19T11:38:43.800Z,101405.50
2023-02-19T11:40:52.249Z,101403.91
2023-02-19T11:43:00.370Z,101402.94
2023-02-19T11:45:17.114Z,101390.75
2023-02-19T11:47:47.873Z,101376.09
2023-02-19T11:49:58.726Z,101386.66
2023-02-19T11:52:22.092Z,101387.69
2023-02-19T11:57:41.607Z,101386.59
2023-02-19T11:59:55.671Z,101388.22
2023-02-19T12:02:13.606Z,101386.00
2023-02-19T12:04:43.417Z,101384.97
2023-02-19T12:06:55.558Z,101383.38
2023-02-19T12:09:21.180Z,101386.13
2023-02-19T12:11:44.247Z,101390.56
2023-02-19T12:14:05.280Z,101390.78
2023-02-19T12:16:22.947Z,101387.63
2023-02-19T12:18:47.680Z,101393.56
2023-02-19T12:21:03.486Z,101379.47
2023-02-19T12:23:31.961Z,101397.91
2023-02-19T12:25:57.368Z,101402.06
2023-02-19T12:28:33.643Z,101411.81
2023-02-19T12:30:56.218Z,101395.03
2023-02-19T12:33:36.734Z,101386.09
2023-02-19T12:35:52.283Z,101402.34
2023-02-19T12:38:09.424Z,101385.78
2023-02-19T12:40:28.319Z,101378.47
2023-02-19T12:42:47.782Z,101374.94
2023-02-19T12:44:57.204Z,101383.38
2023-02-19T12:47:01.735Z,101392.84
2023-02-19T12:49:10.529Z,101385.53
2023-02-19T12:51:21.544Z,101381.47
2023-02-19T12:53:42.122Z,101385.53
2023-02-19T12:55:46.399Z,101382.81
2023-02-19T12:57:51.149Z,101387.94
2023-02-19T12:59:57.410Z,101381.44
2023-02-19T13:02:07.667Z,101380.56
2023-02-19T13:04:19.297Z,101383.50
2023-02-19T13:06:35.221Z,101374.78
2023-02-19T13:09:03.518Z,101361.78
2023-02-19T13:11:10.933Z,101364.72
2023-02-19T13:13:23.978Z,101360.34
2023-02-19T13:15:34.250Z,101360.81
2023-02-19T13:17:44.239Z,101366.00
2023-02-19T13:19:51.933Z,101362.69
2023-02-19T13:22:08.565Z,101357.75
2023-02-19T13:24:17.031Z,101348.50
2023-02-19T13:26:50.268Z,101351.81
2023-02-19T13:29:08.116Z,101356.13
2023-02-19T13:31:29.675Z,101349.03
2023-02-19T13:33:44.856Z,101346.84
2023-02-19T13:36:03.505Z,101347.88
2023-02-19T13:40:22.639Z,101356.84
2023-02-19T13:42:26.920Z,101358.97
2023-02-19T13:44:30.843Z,101351.41
2023-02-19T13:46:38.665Z,101352.19
2023-02-19T13:48:44.279Z,101357.34
2023-02-19T13:50:46.279Z,101356.53
2023-02-19T13:52:48.226Z,101355.75
2023-02-19T13:54:49.949Z,101350.09
2023-02-19T13:59:35.537Z,101360.59
2023-02-19T14:02:10.851Z,101369.25
2023-02-19T14:04:20.198Z,101371.50
2023-02-19T14:06:21.890Z,101371.28
2023-02-19T14:08:48.732Z,101360.72
2023-02-19T14:10:53.076Z,101361.28
2023-02-19T14:12:54.683Z,101371.66
2023-02-19T14:14:57.895Z,101375.22
2023-02-19T14:17:01.786Z,101375.88
2023-02-19T14:19:04.326Z,101377.56
2023-02-19T14:21:14.332Z,101393.03
2023-02-19T14:23:22.391Z,101399.88
2023-02-19T14:25:49.231Z,101411.00
2023-02-19T14:27:53.002Z,101409.09
2023-02-19T14:29:54.836Z,101404.34
2023-02-19T14:31:58.052Z,101407.91
2023-02-19T14:34:01.612Z,101410.63
2023-02-19T14:36:05.848Z,101403.28
2023-02-19T14:38:15.103Z,101409.78
2023-02-19T14:40:21.882Z,101408.75
2023-02-19T14:42:26.135Z,101407.13
2023-02-19T14:44:30.409Z,101401.16
2023-02-19T14:46:35.176Z,101405.47
2023-02-19T14:48:42.455Z,101406.28
2023-02-19T14:50:48.282Z,101408.44
2023-02-19T14:52:56.281Z,101413.56
2023-02-19T14:55:03.460Z,101410.84
2023-02-19T14:57:10.509Z,101414.72
2023-02-19T14:59:24.903Z,101416.34
2023-02-19T15:01:27.121Z,101419.06
2023-02-19T15:03:35.809Z,101424.50
2023-02-19T15:05:38.915Z,101425.03
2023-02-19T15:07:44.318Z,101430.41
2023-02-19T15:09:49.152Z,101427.69
2023-02-19T15:11:50.896Z,101427.44
2023-02-19T15:13:57.241Z,101430.16
2023-02-19T15:15:59.485Z,101432.28
2023-02-19T15:18:02.839Z,101429.56
2023-02-19T15:20:11.136Z,101433.66
2023-02-19T15:22:19.926Z,101433.66
2023-02-19T15:24:21.877Z,101434.75
2023-02-19T15:26:30.091Z,101424.41
2023-02-19T15:28:34.183Z,101436.09
2023-02-19T15:30:35.950Z,101437.78
2023-02-19T15:32:37.648Z,101447.38
2023-02-19T15:34:39.340Z,101442.22
2023-02-19T15:36:41.087Z,101442.53
2023-02-19T15:38:44.412Z,101449.00
2023-02-19T15:40:47.376Z,101454.41
2023-02-19T15:42:49.055Z,101453.91
2023-02-19T15:44:55.225Z,101464.72
2023-02-19T15:46:59.246Z,101460.94
2023-02-19T15:49:06.823Z,101460.09
2023-02-19T15:51:13.637Z,101456.88
2023-02-19T15:53:18.717Z,101462.88
2023-02-19T15:55:33.347Z,101465.59
2023-02-19T15:57:41.164Z,101471.84
2023-02-19T15:59:46.802Z,101468.06
2023-02-19T16:01:48.465Z,101485.75
2023-02-19T16:03:50.143Z,101479.03
2023-02-19T16:05:59.882Z,101483.38
2023-02-19T16:08:16.450Z,101477.72
2023-02-19T16:10:21.786Z,101484.22
2023-02-19T16:12:24.949Z,101477.97
2023-02-19T16:14:31.848Z,101475.00
2023-02-19T16:16:38.511Z,101475.25
2023-02-19T16:18:45.374Z,101472.25
2023-02-19T16:20:47.844Z,101464.94
2023-02-19T16:22:50.486Z,101463.59
2023-02-19T16:24:54.939Z,101467.69
2023-02-19T16:26:57.869Z,101466.09
2023-02-19T16:29:00.907Z,101462.28
2023-02-19T16:31:04.779Z,101456.06
2023-02-19T16:33:33.345Z,101463.94
2023-02-19T16:35:36.186Z,101458.50
2023-02-19T16:37:40.857Z,101456.31
2023-02-19T16:39:45.644Z,101450.91
2023-02-19T16:42:13.030Z,101459.31
2023-02-19T16:46:45.722Z,101459.63
2023-02-19T16:48:47.520Z,101462.63
2023-02-19T16:50:49.988Z,101459.09
2023-02-19T16:52:52.854Z,101467.50
2023-02-19T16:54:54.460Z,101468.31
2023-02-19T16:56:56.079Z,101469.94
2023-02-19T16:58:57.786Z,101468.59
2023-02-19T17:01:00.099Z,101468.88
2023-02-19T17:03:07.705Z,101481.31
2023-02-19T17:05:09.551Z,101482.16
2023-02-19T17:07:13.110Z,101484.59
2023-02-19T17:09:14.684Z,101493.84
2023-02-19T17:11:28.536Z,101492.75
2023-02-19T17:13:30.330Z,101502.50
2023-02-19T17:15:37.253Z,101494.38
2023-02-19T17:17:44.942Z,101505.75
2023-02-19T17:20:13.225Z,101511.72
2023-02-19T17:22:14.820Z,101514.72
2023-02-19T17:24:16.438Z,101522.59
2023-02-19T17:26:19.750Z,101522.06
2023-02-19T17:28:21.440Z,101513.13
2023-02-19T17:30:26.836Z,101518.53
2023-02-19T17:32:28.552Z,101531.00
2023-02-19T17:34:30.147Z,101538.84
2023-02-19T17:36:33.098Z,101552.13
2023-02-19T17:38:34.657Z,101550.81
2023-02-19T17:40:36.447Z,101554.84
2023-02-19T17:42:38.059Z,101563.25
2023-02-19T17:44:39.725Z,101565.69
2023-02-19T17:46:44.353Z,101565.41
2023-02-19T17:48:46.067Z,101565.16
2023-02-19T17:50:47.656Z,101571.38
2023-02-19T17:52:50.672Z,101567.84
2023-02-19T17:54:52.304Z,101576.78
2023-02-19T17:56:53.897Z,101577.06
2023-02-19T17:58:56.783Z,101584.66
2023-02-19T18:00:58.639Z,101576.53
2023-02-19T18:03:00.221Z,101584.13
2023-02-19T18:05:01.834Z,101591.41
2023-02-19T18:07:03.618Z,101591.97
2023-02-19T18:09:06.571Z,101593.06
2023-02-19T18:11:08.150Z,101594.41
2023-02-19T18:13:09.807Z,101592.50
2023-02-19T18:15:16.320Z,101598.75
2023-02-19T18:17:17.942Z,101592.25
2023-02-19T18:19:19.828Z,101592.25
2023-02-19T18:21:23.619Z,101597.09
2023-02-19T18:23:25.271Z,101600.91
2023-02-19T18:25:28.316Z,101613.94
2023-02-19T18:27:29.951Z,101604.44
2023-02-19T18:29:32.452Z,101610.41
2023-02-19T18:31:35.526Z,101610.41
2023-02-19T18:33:37.285Z,101618.25
2023-02-19T18:35:38.997Z,101623.97
2023-02-19T18:37:40.672Z,101620.72
2023-02-19T18:39:43.346Z,101627.75
2023-02-19T18:41:50.542Z,101633.97
2023-02-19T18:43:52.286Z,101634.50
2023-02-19T18:45:53.946Z,101638.88
2023-02-19T18:47:55.616Z,101637.78
2023-02-19T18:49:58.310Z,101642.09
2023-02-19T18:52:00.195Z,101644.25
2023-02-19T18:54:01.779Z,101644.00
2023-02-19T18:56:03.773Z,101649.13
2023-02-19T18:58:06.735Z,101641.81
2023-02-19T19:00:09.468Z,101644.53
2023-02-19T19:02:14.465Z,101642.66
2023-02-19T19:04:16.278Z,101651.03
2023-02-19T19:06:17.884Z,101649.69
2023-02-19T19:08:19.478Z,101641.28
2023-02-19T19:10:22.103Z,101637.75
2023-02-19T19:12:23.624Z,101642.09
2023-02-19T19:14:29.673Z,101641.25
2023-02-19T19:16:31.373Z,101637.72
2023-02-19T19:18:32.887Z,101640.47
2023-02-19T19:20:34.468Z,101637.75
2023-02-19T19:22:36.387Z,101642.63
2023-02-19T19:24:37.969Z,101638.84
2023-02-19T19:26:43.635Z,101653.97
2023-02-19T19:28:45.321Z,101649.09
2023-02-19T19:30:48.402Z,101647.75
2023-02-19T19:32:51.884Z,101640.97
2023-02-19T19:34:54.223Z,101647.22
2023-02-19T19:36:55.742Z,101642.88
2023-02-19T19:38:57.473Z,101641.78
2023-02-19T19:40:59.331Z,101645.03
2023-02-19T19:43:00.925Z,101645.31
2023-02-19T19:45:02.731Z,101648.56
2023-02-19T19:47:05.813Z,101642.31
2023-02-19T19:49:07.376Z,101644.78
2023-02-19T19:51:09.340Z,101649.13
2023-02-19T19:53:11.145Z,101645.84
2023-02-19T19:55:12.697Z,101649.13
2023-02-19T19:57:15.923Z,101648.88
2023-02-19T19:59:20.335Z,101653.75
2023-02-19T20:01:21.939Z,101655.94
2023-02-19T20:03:24.975Z,101661.88
2023-02-19T20:05:26.561Z,101667.53
2023-02-19T20:07:28.128Z,101664.28
2023-02-19T20:09:29.735Z,101659.13
2023-02-19T20:11:31.374Z,101663.75
2023-02-19T20:13:32.923Z,101660.19
2023-02-19T20:15:34.946Z,101660.75
2023-02-19T20:17:36.516Z,101656.41
2023-02-19T20:19:39.495Z,101656.41
2023-02-19T20:21:44.389Z,101655.03
2023-02-19T20:23:46.033Z,101657.22
2023-02-19T20:25:47.607Z,101658.31
2023-02-19T20:27:49.579Z,101662.91
2023-02-19T20:29:51.259Z,101662.91
2023-02-19T20:31:53.067Z,101663.16
2023-02-19T20:33:54.758Z,101672.41
2023-02-19T20:35:57.731Z,101672.41
2023-02-19T20:37:59.286Z,101667.50
2023-02-19T20:40:00.870Z,101673.47
2023-02-19T20:42:02.432Z,101683.50
2023-02-19T20:44:04.131Z,101679.16
2023-02-19T20:46:05.797Z,101674.56
2023-02-19T20:48:07.389Z,101672.09
2023-02-19T20:50:09.718Z,101671.84
2023-02-19T20:52:14.817Z,101689.41
2023-02-19T20:54:16.899Z,101684.81
2023-02-19T20:56:18.438Z,101669.94
2023-02-19T20:58:21.106Z,101673.97
2023-02-19T21:00:23.265Z,101683.19
2023-02-19T21:02:26.247Z,101687.78
2023-02-19T21:04:28.230Z,101686.16
2023-02-19T21:06:29.852Z,101690.78
2023-02-19T21:08:32.728Z,101689.41
2023-02-19T21:10:34.349Z,101690.47
2023-02-19T21:12:35.855Z,101694.56
2023-02-19T21:14:37.416Z,101687.53
2023-02-19T21:16:39.181Z,101685.88
2023-02-19T21:18:40.751Z,101682.38
2023-02-19T21:20:42.385Z,101681.03
2023-02-19T21:22:47.073Z,101671.56
2023-02-19T21:24:50.909Z,101674.81
2023-02-19T21:26:52.461Z,101666.13
2023-02-19T21:28:54.236Z,101671.28
2023-02-19T21:30:55.863Z,101666.69
2023-02-19T21:32:57.400Z,101663.97
2023-02-19T21:34:59.035Z,101667.78
2023-02-19T21:37:00.588Z,101664.22
2023-02-19T21:39:02.772Z,101661.25
2023-02-19T21:41:06.327Z,101676.41
2023-02-19T21:43:07.843Z,101676.16
2023-02-19T21:45:09.790Z,101682.91
2023-02-19T21:47:11.693Z,101681.28
2023-02-19T21:49:13.292Z,101694.56
2023-02-19T21:51:14.825Z,101693.50
2023-02-19T21:53:16.471Z,101704.56
2023-02-19T21:55:18.023Z,101711.06
2023-02-19T21:57:21.007Z,101710.53
2023-02-19T21:59:22.979Z,101712.13
2023-02-19T22:01:27.185Z,101707.28
2023-02-19T22:03:28.736Z,101705.66
2023-02-19T22:05:30.333Z,101700.78
2023-02-19T22:07:31.844Z,101692.91
2023-02-19T22:09:33.412Z,101703.75
2023-02-19T22:11:34.985Z,101702.13
2023-02-19T22:13:38.013Z,101695.38
2023-02-19T22:15:39.616Z,101702.94
2023-02-19T22:17:41.399Z,101701.59
2023-02-19T22:19:42.894Z,101702.66
2023-02-19T22:21:44.996Z,101702.13
2023-02-19T22:23:47.386Z,101696.44
2023-02-19T22:25:49.067Z,101696.69
2023-02-19T22:27:50.672Z,101697.78
2023-02-19T22:29:53.605Z,101707.25
2023-02-19T22:31:55.296Z,101705.91
2023-02-19T22:33:56.950Z,101708.34
2023-02-19T22:35:58.516Z,101708.91
2023-02-19T22:38:00.113Z,101715.69
2023-02-19T22:40:01.829Z,101711.59
2023-02-19T22:42:03.721Z,101704.81
2023-02-19T22:44:05.391Z,101711.03
2023-02-19T22:46:12.291Z,101712.94
2023-02-19T22:48:19.240Z,101708.59
2023-02-19T22:50:26.698Z,101709.16
2023-02-19T22:52:28.320Z,101713.50
2023-02-19T22:54:29.910Z,101713.50
2023-02-19T22:56:31.786Z,101716.72
2023-02-19T22:58:33.352Z,101717.28
2023-02-19T23:00:35.592Z,101717.56
2023-02-19T23:02:40.294Z,101720.25
2023-02-19T23:04:41.881Z,101717.00
2023-02-19T23:06:44.664Z,101721.06
2023-02-19T23:08:46.233Z,101722.41
2023-02-19T23:10:47.815Z,101714.28
2023-02-19T23:12:49.747Z,101715.13
2023-02-19T23:14:51.318Z,101720.25
2023-02-19T23:16:52.967Z,101717.28
2023-02-19T23:18:55.980Z,101722.94
2023-02-19T23:20:57.795Z,101729.97
2023-02-19T23:22:59.380Z,101725.63
2023-02-19T23:25:01.335Z,101721.03
2023-02-19T23:27:03.029Z,101724.56
2023-02-19T23:29:04.612Z,101714.53
2023-02-19T23:31:06.934Z,101713.97
2023-02-19T23:33:08.568Z,101718.56
2023-02-19T23:35:11.556Z,101721.03
2023-02-19T23:37:13.228Z,101723.72
2023-02-19T23:39:16.522Z,101722.66
2023-02-19T23:41:18.574Z,101711.78
2023-02-19T23:43:20.170Z,101713.94
2023-02-19T23:45:21.698Z,101709.88
2023-02-19T23:47:23.257Z,101714.47
2023-02-19T23:49:24.970Z,101714.75
2023-02-19T23:51:27.944Z,101718.78
2023-02-19T23:53:29.590Z,101713.09
2023-02-19T23:55:33.433Z,101717.44